sensor_id;sensor_type;location;lat;lon;timestamp;P1;durP1;ratioP1;P2;durP2;ratioP2
34960;SDS011;30789;52.030;7.110;2023-05-10T00:00:23;2.88;;;2.67;;
34960;SDS011;30789;52.030;7.110;2023-05-10T00:02:50;3.45;;;3.00;;
34960;SDS011;30789;52.030;7.110;2023-05-10T00:05:16;3.00;;;2.67;;
34960;SDS011;30789;52.030;7.110;2023-05-10T00:07:43;3.78;;;3.35;;
34960;SDS011;30789;52.030;7.110;2023-05-10T00:10:10;4.40;;;3.05;;
34960;SDS011;30789;52.030;7.110;2023-05-10T00:12:38;3.60;;;2.78;;
34960;SDS011;30789;52.030;7.110;2023-05-10T00:15:05;3.20;;;2.90;;
34960;SDS011;30789;52.030;7.110;2023-05-10T00:17:33;3.80;;;3.15;;
34960;SDS011;30789;52.030;7.110;2023-05-10T00:19:59;4.07;;;2.78;;
34960;SDS011;30789;52.030;7.110;2023-05-10T00:22:26;3.72;;;3.00;;
34960;SDS011;30789;52.030;7.110;2023-05-10T00:24:52;3.20;;;2.80;;
34960;SDS011;30789;52.030;7.110;2023-05-10T00:27:19;4.13;;;3.60;;
34960;SDS011;30789;52.030;7.110;2023-05-10T00:29:47;5.28;;;3.40;;
34960;SDS011;30789;52.030;7.110;2023-05-10T00:32:14;8.68;;;4.10;;
34960;SDS011;30789;52.030;7.110;2023-05-10T00:34:41;6.05;;;4.18;;
34960;SDS011;30789;52.030;7.110;2023-05-10T00:37:07;5.35;;;3.58;;
34960;SDS011;30789;52.030;7.110;2023-05-10T00:39:34;3.85;;;3.30;;
34960;SDS011;30789;52.030;7.110;2023-05-10T00:42:00;4.13;;;3.17;;
34960;SDS011;30789;52.030;7.110;2023-05-10T00:44:27;3.63;;;2.47;;
34960;SDS011;30789;52.030;7.110;2023-05-10T00:46:54;2.65;;;2.00;;
34960;SDS011;30789;52.030;7.110;2023-05-10T00:49:21;3.17;;;1.38;;
34960;SDS011;30789;52.030;7.110;2023-05-10T00:51:48;1.10;;;0.80;;
34960;SDS011;30789;52.030;7.110;2023-05-10T00:54:15;1.20;;;1.10;;
34960;SDS011;30789;52.030;7.110;2023-05-10T00:56:42;2.28;;;0.95;;
34960;SDS011;30789;52.030;7.110;2023-05-10T00:59:13;3.05;;;1.20;;
34960;SDS011;30789;52.030;7.110;2023-05-10T01:01:40;1.83;;;1.40;;
34960;SDS011;30789;52.030;7.110;2023-05-10T01:04:08;1.63;;;1.25;;
34960;SDS011;30789;52.030;7.110;2023-05-10T01:06:36;1.77;;;1.55;;
34960;SDS011;30789;52.030;7.110;2023-05-10T01:09:02;2.28;;;1.90;;
34960;SDS011;30789;52.030;7.110;2023-05-10T01:11:29;2.78;;;1.88;;
34960;SDS011;30789;52.030;7.110;2023-05-10T01:13:56;2.45;;;2.22;;
34960;SDS011;30789;52.030;7.110;2023-05-10T01:16:24;2.55;;;1.73;;
34960;SDS011;30789;52.030;7.110;2023-05-10T01:18:52;3.38;;;2.40;;
34960;SDS011;30789;52.030;7.110;2023-05-10T01:21:23;3.85;;;1.92;;
34960;SDS011;30789;52.030;7.110;2023-05-10T01:33:11;3.85;;;2.28;;
34960;SDS011;30789;52.030;7.110;2023-05-10T01:35:43;2.45;;;2.20;;
34960;SDS011;30789;52.030;7.110;2023-05-10T01:38:17;2.17;;;1.85;;
34960;SDS011;30789;52.030;7.110;2023-05-10T01:40:51;2.50;;;2.30;;
34960;SDS011;30789;52.030;7.110;2023-05-10T01:43:26;2.50;;;2.30;;
34960;SDS011;30789;52.030;7.110;2023-05-10T01:45:59;2.38;;;1.92;;
34960;SDS011;30789;52.030;7.110;2023-05-10T01:48:35;3.75;;;2.17;;
34960;SDS011;30789;52.030;7.110;2023-05-10T01:51:03;2.10;;;1.80;;
34960;SDS011;30789;52.030;7.110;2023-05-10T01:53:32;2.92;;;2.35;;
34960;SDS011;30789;52.030;7.110;2023-05-10T01:56:01;2.85;;;2.58;;
34960;SDS011;30789;52.030;7.110;2023-05-10T01:58:29;2.90;;;2.40;;
34960;SDS011;30789;52.030;7.110;2023-05-10T02:00:59;2.42;;;2.22;;
34960;SDS011;30789;52.030;7.110;2023-05-10T02:03:27;3.58;;;2.30;;
34960;SDS011;30789;52.030;7.110;2023-05-10T02:05:57;4.85;;;2.65;;
34960;SDS011;30789;52.030;7.110;2023-05-10T02:08:25;2.95;;;2.45;;
34960;SDS011;30789;52.030;7.110;2023-05-10T02:10:53;2.50;;;2.25;;
34960;SDS011;30789;52.030;7.110;2023-05-10T02:13:21;2.33;;;1.95;;
34960;SDS011;30789;52.030;7.110;2023-05-10T02:15:49;2.60;;;2.15;;
34960;SDS011;30789;52.030;7.110;2023-05-10T02:18:18;2.95;;;1.80;;
34960;SDS011;30789;52.030;7.110;2023-05-10T02:20:45;4.07;;;2.15;;
34960;SDS011;30789;52.030;7.110;2023-05-10T02:23:14;1.83;;;1.60;;
34960;SDS011;30789;52.030;7.110;2023-05-10T02:25:43;2.72;;;1.70;;
34960;SDS011;30789;52.030;7.110;2023-05-10T02:28:11;2.40;;;1.35;;
34960;SDS011;30789;52.030;7.110;2023-05-10T02:30:39;7.88;;;1.80;;
34960;SDS011;30789;52.030;7.110;2023-05-10T02:33:06;1.63;;;1.40;;
34960;SDS011;30789;52.030;7.110;2023-05-10T02:35:33;2.42;;;1.80;;
34960;SDS011;30789;52.030;7.110;2023-05-10T02:38:01;2.65;;;2.05;;
34960;SDS011;30789;52.030;7.110;2023-05-10T02:40:29;2.08;;;1.20;;
34960;SDS011;30789;52.030;7.110;2023-05-10T02:42:56;2.22;;;1.50;;
34960;SDS011;30789;52.030;7.110;2023-05-10T02:45:25;2.17;;;1.67;;
34960;SDS011;30789;52.030;7.110;2023-05-10T02:47:55;2.25;;;2.05;;
34960;SDS011;30789;52.030;7.110;2023-05-10T02:50:22;2.45;;;1.75;;
34960;SDS011;30789;52.030;7.110;2023-05-10T02:52:51;2.35;;;1.80;;
34960;SDS011;30789;52.030;7.110;2023-05-10T02:55:23;3.47;;;2.17;;
34960;SDS011;30789;52.030;7.110;2023-05-10T02:57:59;4.13;;;2.58;;
34960;SDS011;30789;52.030;7.110;2023-05-10T03:00:27;3.00;;;2.20;;
34960;SDS011;30789;52.030;7.110;2023-05-10T03:02:54;2.38;;;1.80;;
34960;SDS011;30789;52.030;7.110;2023-05-10T03:05:21;3.78;;;2.35;;
34960;SDS011;30789;52.030;7.110;2023-05-10T03:07:47;2.75;;;2.00;;
34960;SDS011;30789;52.030;7.110;2023-05-10T03:10:14;3.40;;;2.58;;
34960;SDS011;30789;52.030;7.110;2023-05-10T03:12:45;2.25;;;1.95;;
34960;SDS011;30789;52.030;7.110;2023-05-10T03:15:22;3.40;;;2.45;;
34960;SDS011;30789;52.030;7.110;2023-05-10T03:17:55;8.02;;;2.50;;
34960;SDS011;30789;52.030;7.110;2023-05-10T03:20:29;3.75;;;2.20;;
34960;SDS011;30789;52.030;7.110;2023-05-10T03:23:02;2.03;;;1.75;;
34960;SDS011;30789;52.030;7.110;2023-05-10T03:25:33;2.10;;;1.88;;
34960;SDS011;30789;52.030;7.110;2023-05-10T03:28:00;2.83;;;2.25;;
34960;SDS011;30789;52.030;7.110;2023-05-10T03:30:29;7.18;;;3.25;;
34960;SDS011;30789;52.030;7.110;2023-05-10T03:32:56;6.13;;;2.75;;
34960;SDS011;30789;52.030;7.110;2023-05-10T03:35:23;5.43;;;3.20;;
34960;SDS011;30789;52.030;7.110;2023-05-10T03:37:50;6.05;;;3.47;;
34960;SDS011;30789;52.030;7.110;2023-05-10T03:40:16;4.47;;;3.03;;
34960;SDS011;30789;52.030;7.110;2023-05-10T03:42:43;5.20;;;3.13;;
34960;SDS011;30789;52.030;7.110;2023-05-10T03:45:09;7.60;;;4.15;;
34960;SDS011;30789;52.030;7.110;2023-05-10T03:47:37;6.45;;;3.83;;
34960;SDS011;30789;52.030;7.110;2023-05-10T03:50:04;7.85;;;3.83;;
34960;SDS011;30789;52.030;7.110;2023-05-10T03:52:32;6.63;;;3.50;;
34960;SDS011;30789;52.030;7.110;2023-05-10T03:54:59;7.60;;;3.55;;
34960;SDS011;30789;52.030;7.110;2023-05-10T03:57:27;6.25;;;2.97;;
34960;SDS011;30789;52.030;7.110;2023-05-10T03:59:54;5.30;;;3.17;;
34960;SDS011;30789;52.030;7.110;2023-05-10T04:02:20;8.75;;;3.33;;
34960;SDS011;30789;52.030;7.110;2023-05-10T04:04:48;7.53;;;3.25;;
34960;SDS011;30789;52.030;7.110;2023-05-10T04:07:15;6.85;;;3.30;;
34960;SDS011;30789;52.030;7.110;2023-05-10T04:09:42;7.15;;;3.70;;
34960;SDS011;30789;52.030;7.110;2023-05-10T04:12:09;8.65;;;3.72;;
34960;SDS011;30789;52.030;7.110;2023-05-10T04:14:36;8.23;;;3.70;;
34960;SDS011;30789;52.030;7.110;2023-05-10T04:17:02;7.07;;;4.10;;
34960;SDS011;30789;52.030;7.110;2023-05-10T04:19:29;8.20;;;4.50;;
34960;SDS011;30789;52.030;7.110;2023-05-10T04:21:57;7.35;;;3.83;;
34960;SDS011;30789;52.030;7.110;2023-05-10T04:24:24;8.18;;;5.20;;
34960;SDS011;30789;52.030;7.110;2023-05-10T04:26:51;6.97;;;4.72;;
34960;SDS011;30789;52.030;7.110;2023-05-10T04:29:18;8.23;;;4.97;;
34960;SDS011;30789;52.030;7.110;2023-05-10T04:31:44;6.20;;;3.67;;
34960;SDS011;30789;52.030;7.110;2023-05-10T04:34:11;8.00;;;4.00;;
34960;SDS011;30789;52.030;7.110;2023-05-10T04:36:37;5.30;;;2.50;;
34960;SDS011;30789;52.030;7.110;2023-05-10T04:39:05;7.88;;;3.45;;
34960;SDS011;30789;52.030;7.110;2023-05-10T04:41:32;6.50;;;2.50;;
34960;SDS011;30789;52.030;7.110;2023-05-10T04:43:58;8.05;;;2.53;;
34960;SDS011;30789;52.030;7.110;2023-05-10T04:46:25;3.80;;;1.95;;
34960;SDS011;30789;52.030;7.110;2023-05-10T04:48:51;4.63;;;2.88;;
34960;SDS011;30789;52.030;7.110;2023-05-10T04:51:17;7.40;;;2.15;;
34960;SDS011;30789;52.030;7.110;2023-05-10T04:53:45;5.25;;;2.15;;
34960;SDS011;30789;52.030;7.110;2023-05-10T04:56:13;5.00;;;2.97;;
34960;SDS011;30789;52.030;7.110;2023-05-10T04:58:41;6.57;;;2.55;;
34960;SDS011;30789;52.030;7.110;2023-05-10T05:01:07;11.30;;;2.90;;
34960;SDS011;30789;52.030;7.110;2023-05-10T05:03:35;4.43;;;1.80;;
34960;SDS011;30789;52.030;7.110;2023-05-10T05:06:02;4.68;;;2.70;;
34960;SDS011;30789;52.030;7.110;2023-05-10T05:08:29;8.95;;;4.25;;
34960;SDS011;30789;52.030;7.110;2023-05-10T05:10:56;8.77;;;2.10;;
34960;SDS011;30789;52.030;7.110;2023-05-10T05:13:24;2.22;;;1.83;;
34960;SDS011;30789;52.030;7.110;2023-05-10T05:15:50;0.82;;;0.57;;
34960;SDS011;30789;52.030;7.110;2023-05-10T05:18:17;0.73;;;0.57;;
34960;SDS011;30789;52.030;7.110;2023-05-10T05:20:43;1.20;;;1.13;;
34960;SDS011;30789;52.030;7.110;2023-05-10T05:23:10;2.83;;;1.63;;
34960;SDS011;30789;52.030;7.110;2023-05-10T05:25:36;1.83;;;1.70;;
34960;SDS011;30789;52.030;7.110;2023-05-10T05:28:03;2.65;;;1.85;;
34960;SDS011;30789;52.030;7.110;2023-05-10T05:30:31;0.82;;;0.77;;
34960;SDS011;30789;52.030;7.110;2023-05-10T05:32:57;1.45;;;1.35;;
34960;SDS011;30789;52.030;7.110;2023-05-10T05:35:24;2.00;;;1.90;;
34960;SDS011;30789;52.030;7.110;2023-05-10T05:37:51;0.82;;;0.70;;
34960;SDS011;30789;52.030;7.110;2023-05-10T05:40:17;1.90;;;1.80;;
34960;SDS011;30789;52.030;7.110;2023-05-10T05:42:46;1.77;;;1.55;;
34960;SDS011;30789;52.030;7.110;2023-05-10T05:45:12;1.88;;;1.83;;
34960;SDS011;30789;52.030;7.110;2023-05-10T05:47:40;2.00;;;1.27;;
34960;SDS011;30789;52.030;7.110;2023-05-10T05:50:07;0.65;;;0.65;;
34960;SDS011;30789;52.030;7.110;2023-05-10T05:52:34;1.10;;;1.10;;
34960;SDS011;30789;52.030;7.110;2023-05-10T05:55:01;2.72;;;2.45;;
34960;SDS011;30789;52.030;7.110;2023-05-10T05:57:28;2.17;;;2.08;;
34960;SDS011;30789;52.030;7.110;2023-05-10T05:59:55;1.50;;;1.40;;
34960;SDS011;30789;52.030;7.110;2023-05-10T06:02:21;1.23;;;1.20;;
34960;SDS011;30789;52.030;7.110;2023-05-10T06:04:49;0.88;;;0.88;;
34960;SDS011;30789;52.030;7.110;2023-05-10T06:07:16;6.72;;;1.40;;
34960;SDS011;30789;52.030;7.110;2023-05-10T06:09:42;1.63;;;1.52;;
34960;SDS011;30789;52.030;7.110;2023-05-10T06:12:09;1.48;;;1.42;;
34960;SDS011;30789;52.030;7.110;2023-05-10T06:14:36;1.80;;;1.70;;
34960;SDS011;30789;52.030;7.110;2023-05-10T06:17:03;0.35;;;0.25;;
34960;SDS011;30789;52.030;7.110;2023-05-10T06:19:30;1.27;;;1.17;;
34960;SDS011;30789;52.030;7.110;2023-05-10T06:21:58;2.28;;;2.08;;
34960;SDS011;30789;52.030;7.110;2023-05-10T06:24:24;5.53;;;1.08;;
34960;SDS011;30789;52.030;7.110;2023-05-10T06:26:52;2.60;;;2.50;;
34960;SDS011;30789;52.030;7.110;2023-05-10T06:29:18;0.98;;;0.93;;
34960;SDS011;30789;52.030;7.110;2023-05-10T06:31:45;4.20;;;0.80;;
34960;SDS011;30789;52.030;7.110;2023-05-10T06:34:11;1.38;;;1.38;;
34960;SDS011;30789;52.030;7.110;2023-05-10T06:36:38;1.17;;;1.17;;
34960;SDS011;30789;52.030;7.110;2023-05-10T06:39:06;1.75;;;1.50;;
34960;SDS011;30789;52.030;7.110;2023-05-10T06:41:33;2.50;;;0.98;;
34960;SDS011;30789;52.030;7.110;2023-05-10T06:43:59;2.33;;;2.22;;
34960;SDS011;30789;52.030;7.110;2023-05-10T06:46:26;1.13;;;1.13;;
34960;SDS011;30789;52.030;7.110;2023-05-10T06:48:52;1.40;;;1.40;;
34960;SDS011;30789;52.030;7.110;2023-05-10T06:51:19;1.02;;;1.02;;
34960;SDS011;30789;52.030;7.110;2023-05-10T06:53:46;2.22;;;0.85;;
34960;SDS011;30789;52.030;7.110;2023-05-10T06:56:14;1.02;;;1.02;;
34960;SDS011;30789;52.030;7.110;2023-05-10T06:58:40;0.90;;;0.75;;
34960;SDS011;30789;52.030;7.110;2023-05-10T07:01:07;1.50;;;1.48;;
34960;SDS011;30789;52.030;7.110;2023-05-10T07:03:33;1.30;;;1.30;;
34960;SDS011;30789;52.030;7.110;2023-05-10T07:06:00;1.25;;;1.25;;
34960;SDS011;30789;52.030;7.110;2023-05-10T07:08:29;1.48;;;1.48;;
34960;SDS011;30789;52.030;7.110;2023-05-10T07:10:59;1.67;;;1.60;;
34960;SDS011;30789;52.030;7.110;2023-05-10T07:13:27;0.38;;;0.38;;
34960;SDS011;30789;52.030;7.110;2023-05-10T07:15:53;1.23;;;1.17;;
34960;SDS011;30789;52.030;7.110;2023-05-10T07:18:20;3.10;;;2.83;;
34960;SDS011;30789;52.030;7.110;2023-05-10T07:20:46;1.67;;;1.65;;
34960;SDS011;30789;52.030;7.110;2023-05-10T07:23:13;3.97;;;3.58;;
34960;SDS011;30789;52.030;7.110;2023-05-10T07:25:40;2.47;;;2.20;;
34960;SDS011;30789;52.030;7.110;2023-05-10T07:28:06;0.43;;;0.43;;
34960;SDS011;30789;52.030;7.110;2023-05-10T07:30:34;2.47;;;2.20;;
34960;SDS011;30789;52.030;7.110;2023-05-10T07:33:01;0.88;;;0.88;;
34960;SDS011;30789;52.030;7.110;2023-05-10T07:35:27;1.50;;;1.40;;
34960;SDS011;30789;52.030;7.110;2023-05-10T07:37:53;3.03;;;2.83;;
34960;SDS011;30789;52.030;7.110;2023-05-10T07:40:20;1.77;;;1.67;;
34960;SDS011;30789;52.030;7.110;2023-05-10T07:42:47;0.47;;;0.47;;
34960;SDS011;30789;52.030;7.110;2023-05-10T07:45:13;0.82;;;0.82;;
34960;SDS011;30789;52.030;7.110;2023-05-10T07:47:41;1.98;;;1.13;;
34960;SDS011;30789;52.030;7.110;2023-05-10T07:50:07;0.43;;;0.43;;
34960;SDS011;30789;52.030;7.110;2023-05-10T07:52:34;3.30;;;1.90;;
34960;SDS011;30789;52.030;7.110;2023-05-10T07:55:01;1.15;;;1.15;;
34960;SDS011;30789;52.030;7.110;2023-05-10T07:57:27;0.50;;;0.50;;
34960;SDS011;30789;52.030;7.110;2023-05-10T07:59:54;0.80;;;0.80;;
34960;SDS011;30789;52.030;7.110;2023-05-10T08:02:20;4.88;;;3.50;;
34960;SDS011;30789;52.030;7.110;2023-05-10T08:04:48;0.63;;;0.63;;
34960;SDS011;30789;52.030;7.110;2023-05-10T08:07:14;2.03;;;1.92;;
34960;SDS011;30789;52.030;7.110;2023-05-10T08:09:41;3.03;;;2.75;;
34960;SDS011;30789;52.030;7.110;2023-05-10T08:12:08;0.28;;;0.28;;
34960;SDS011;30789;52.030;7.110;2023-05-10T08:14:34;0.82;;;0.43;;
34960;SDS011;30789;52.030;7.110;2023-05-10T08:17:01;2.08;;;1.98;;
34960;SDS011;30789;52.030;7.110;2023-05-10T08:19:28;1.45;;;1.35;;
34960;SDS011;30789;52.030;7.110;2023-05-10T08:21:56;1.45;;;1.40;;
34960;SDS011;30789;52.030;7.110;2023-05-10T08:24:22;2.80;;;2.53;;
34960;SDS011;30789;52.030;7.110;2023-05-10T08:26:49;1.02;;;1.00;;
34960;SDS011;30789;52.030;7.110;2023-05-10T08:29:15;1.13;;;1.13;;
34960;SDS011;30789;52.030;7.110;2023-05-10T08:31:42;0.80;;;0.75;;
34960;SDS011;30789;52.030;7.110;2023-05-10T08:34:08;0.95;;;0.82;;
34960;SDS011;30789;52.030;7.110;2023-05-10T08:36:35;1.55;;;1.45;;
34960;SDS011;30789;52.030;7.110;2023-05-10T08:39:03;4.43;;;2.15;;
34960;SDS011;30789;52.030;7.110;2023-05-10T08:41:29;0.77;;;0.77;;
34960;SDS011;30789;52.030;7.110;2023-05-10T08:43:59;1.25;;;1.17;;
34960;SDS011;30789;52.030;7.110;2023-05-10T08:46:30;1.58;;;1.48;;
34960;SDS011;30789;52.030;7.110;2023-05-10T08:48:59;2.42;;;1.70;;
34960;SDS011;30789;52.030;7.110;2023-05-10T08:51:29;2.40;;;1.70;;
34960;SDS011;30789;52.030;7.110;2023-05-10T08:53:59;4.32;;;2.67;;
34960;SDS011;30789;52.030;7.110;2023-05-10T08:56:28;1.70;;;1.45;;
34960;SDS011;30789;52.030;7.110;2023-05-10T08:58:54;1.88;;;1.70;;
34960;SDS011;30789;52.030;7.110;2023-05-10T09:01:22;1.20;;;1.13;;
34960;SDS011;30789;52.030;7.110;2023-05-10T09:03:49;2.45;;;2.35;;
34960;SDS011;30789;52.030;7.110;2023-05-10T09:06:16;1.35;;;1.35;;
34960;SDS011;30789;52.030;7.110;2023-05-10T09:08:43;0.90;;;0.68;;
34960;SDS011;30789;52.030;7.110;2023-05-10T09:11:11;1.25;;;1.25;;
34960;SDS011;30789;52.030;7.110;2023-05-10T09:13:40;1.08;;;1.08;;
34960;SDS011;30789;52.030;7.110;2023-05-10T09:16:08;2.15;;;2.05;;
34960;SDS011;30789;52.030;7.110;2023-05-10T09:18:35;1.90;;;1.73;;
34960;SDS011;30789;52.030;7.110;2023-05-10T09:21:02;1.33;;;1.33;;
34960;SDS011;30789;52.030;7.110;2023-05-10T09:23:28;1.35;;;1.35;;
34960;SDS011;30789;52.030;7.110;2023-05-10T09:26:03;1.70;;;1.23;;
34960;SDS011;30789;52.030;7.110;2023-05-10T09:28:31;0.85;;;0.85;;
34960;SDS011;30789;52.030;7.110;2023-05-10T09:30:59;2.45;;;1.98;;
34960;SDS011;30789;52.030;7.110;2023-05-10T09:33:26;1.55;;;1.08;;
34960;SDS011;30789;52.030;7.110;2023-05-10T09:35:52;0.85;;;0.85;;
34960;SDS011;30789;52.030;7.110;2023-05-10T09:38:19;2.25;;;1.27;;
34960;SDS011;30789;52.030;7.110;2023-05-10T09:40:50;2.83;;;1.25;;
34960;SDS011;30789;52.030;7.110;2023-05-10T09:43:19;0.88;;;0.88;;
34960;SDS011;30789;52.030;7.110;2023-05-10T09:45:47;1.52;;;1.42;;
34960;SDS011;30789;52.030;7.110;2023-05-10T09:48:16;0.73;;;0.73;;
34960;SDS011;30789;52.030;7.110;2023-05-10T09:50:42;2.28;;;2.08;;
34960;SDS011;30789;52.030;7.110;2023-05-10T09:53:09;3.83;;;2.58;;
34960;SDS011;30789;52.030;7.110;2023-05-10T09:55:41;2.42;;;1.05;;
34960;SDS011;30789;52.030;7.110;2023-05-10T09:58:09;0.75;;;0.43;;
34960;SDS011;30789;52.030;7.110;2023-05-10T10:00:37;0.73;;;0.73;;
34960;SDS011;30789;52.030;7.110;2023-05-10T10:03:04;1.13;;;0.57;;
34960;SDS011;30789;52.030;7.110;2023-05-10T10:05:32;2.35;;;2.20;;
34960;SDS011;30789;52.030;7.110;2023-05-10T10:08:02;2.10;;;0.90;;
34960;SDS011;30789;52.030;7.110;2023-05-10T10:10:30;1.40;;;1.30;;
34960;SDS011;30789;52.030;7.110;2023-05-10T10:12:58;0.90;;;0.90;;
34960;SDS011;30789;52.030;7.110;2023-05-10T10:15:25;1.35;;;1.25;;
34960;SDS011;30789;52.030;7.110;2023-05-10T10:17:52;0.30;;;0.30;;
34960;SDS011;30789;52.030;7.110;2023-05-10T10:20:20;1.42;;;0.50;;
34960;SDS011;30789;52.030;7.110;2023-05-10T10:22:49;2.33;;;1.88;;
34960;SDS011;30789;52.030;7.110;2023-05-10T10:25:16;1.20;;;1.13;;
34960;SDS011;30789;52.030;7.110;2023-05-10T10:27:45;0.98;;;0.85;;
34960;SDS011;30789;52.030;7.110;2023-05-10T10:30:21;1.08;;;1.08;;
34960;SDS011;30789;52.030;7.110;2023-05-10T10:35:26;0.20;;;0.20;;
34960;SDS011;30789;52.030;7.110;2023-05-10T10:37:56;0.88;;;0.88;;
34960;SDS011;30789;52.030;7.110;2023-05-10T10:40:24;2.17;;;2.08;;
34960;SDS011;30789;52.030;7.110;2023-05-10T10:42:51;1.52;;;0.95;;
34960;SDS011;30789;52.030;7.110;2023-05-10T10:45:18;4.28;;;1.75;;
34960;SDS011;30789;52.030;7.110;2023-05-10T10:47:46;0.68;;;0.68;;
34960;SDS011;30789;52.030;7.110;2023-05-10T10:50:13;1.17;;;0.85;;
34960;SDS011;30789;52.030;7.110;2023-05-10T10:52:41;0.95;;;0.95;;
34960;SDS011;30789;52.030;7.110;2023-05-10T10:55:10;1.13;;;1.13;;
34960;SDS011;30789;52.030;7.110;2023-05-10T10:57:48;4.00;;;1.52;;
34960;SDS011;30789;52.030;7.110;2023-05-10T11:00:20;1.42;;;1.35;;
34960;SDS011;30789;52.030;7.110;2023-05-10T11:02:49;0.80;;;0.80;;
34960;SDS011;30789;52.030;7.110;2023-05-10T11:05:24;1.17;;;1.08;;
34960;SDS011;30789;52.030;7.110;2023-05-10T11:07:59;0.85;;;0.85;;
34960;SDS011;30789;52.030;7.110;2023-05-10T11:10:33;1.38;;;1.27;;
34960;SDS011;30789;52.030;7.110;2023-05-10T11:13:01;3.53;;;1.25;;
34960;SDS011;30789;52.030;7.110;2023-05-10T11:15:29;0.30;;;0.20;;
34960;SDS011;30789;52.030;7.110;2023-05-10T11:17:56;0.30;;;0.30;;
34960;SDS011;30789;52.030;7.110;2023-05-10T11:20:23;1.10;;;0.38;;
34960;SDS011;30789;52.030;7.110;2023-05-10T11:22:54;0.40;;;0.40;;
34960;SDS011;30789;52.030;7.110;2023-05-10T11:25:25;3.17;;;1.38;;
34960;SDS011;30789;52.030;7.110;2023-05-10T11:27:54;0.73;;;0.73;;
34960;SDS011;30789;52.030;7.110;2023-05-10T11:30:21;1.00;;;0.73;;
34960;SDS011;30789;52.030;7.110;2023-05-10T11:32:48;1.48;;;1.38;;
34960;SDS011;30789;52.030;7.110;2023-05-10T11:35:15;0.65;;;0.65;;
34960;SDS011;30789;52.030;7.110;2023-05-10T11:37:41;0.95;;;0.63;;
34960;SDS011;30789;52.030;7.110;2023-05-10T11:40:09;9.63;;;2.33;;
34960;SDS011;30789;52.030;7.110;2023-05-10T11:42:36;1.77;;;1.67;;
34960;SDS011;30789;52.030;7.110;2023-05-10T11:45:05;2.55;;;1.33;;
34960;SDS011;30789;52.030;7.110;2023-05-10T11:47:32;1.08;;;1.02;;
34960;SDS011;30789;52.030;7.110;2023-05-10T11:50:00;0.95;;;0.93;;
34960;SDS011;30789;52.030;7.110;2023-05-10T11:52:27;1.55;;;1.45;;
34960;SDS011;30789;52.030;7.110;2023-05-10T11:54:54;2.75;;;1.58;;
34960;SDS011;30789;52.030;7.110;2023-05-10T11:57:25;1.35;;;1.02;;
34960;SDS011;30789;52.030;7.110;2023-05-10T11:59:53;1.08;;;0.55;;
34960;SDS011;30789;52.030;7.110;2023-05-10T12:02:21;1.65;;;1.13;;
34960;SDS011;30789;52.030;7.110;2023-05-10T12:04:47;2.28;;;1.05;;
34960;SDS011;30789;52.030;7.110;2023-05-10T12:07:14;1.25;;;1.25;;
34960;SDS011;30789;52.030;7.110;2023-05-10T12:09:42;1.27;;;0.65;;
34960;SDS011;30789;52.030;7.110;2023-05-10T12:12:09;1.45;;;1.35;;
34960;SDS011;30789;52.030;7.110;2023-05-10T12:14:36;0.35;;;0.35;;
34960;SDS011;30789;52.030;7.110;2023-05-10T12:17:02;0.70;;;0.70;;
34960;SDS011;30789;52.030;7.110;2023-05-10T12:19:37;0.65;;;0.65;;
34960;SDS011;30789;52.030;7.110;2023-05-10T12:22:04;1.80;;;1.70;;
34960;SDS011;30789;52.030;7.110;2023-05-10T12:24:33;0.50;;;0.50;;
34960;SDS011;30789;52.030;7.110;2023-05-10T12:27:03;0.80;;;0.80;;
34960;SDS011;30789;52.030;7.110;2023-05-10T12:29:32;1.13;;;1.13;;
34960;SDS011;30789;52.030;7.110;2023-05-10T12:31:59;3.47;;;1.67;;
34960;SDS011;30789;52.030;7.110;2023-05-10T12:34:26;1.73;;;1.63;;
34960;SDS011;30789;52.030;7.110;2023-05-10T12:36:57;0.77;;;0.77;;
34960;SDS011;30789;52.030;7.110;2023-05-10T12:39:24;0.32;;;0.32;;
34960;SDS011;30789;52.030;7.110;2023-05-10T12:41:51;2.35;;;1.58;;
34960;SDS011;30789;52.030;7.110;2023-05-10T12:44:18;4.47;;;0.88;;
34960;SDS011;30789;52.030;7.110;2023-05-10T12:46:44;1.70;;;1.38;;
34960;SDS011;30789;52.030;7.110;2023-05-10T12:49:11;0.68;;;0.68;;
34960;SDS011;30789;52.030;7.110;2023-05-10T12:51:37;0.38;;;0.38;;
34960;SDS011;30789;52.030;7.110;2023-05-10T12:54:05;3.17;;;1.42;;
34960;SDS011;30789;52.030;7.110;2023-05-10T12:56:31;0.75;;;0.75;;
34960;SDS011;30789;52.030;7.110;2023-05-10T12:58:58;1.50;;;1.13;;
34960;SDS011;30789;52.030;7.110;2023-05-10T13:01:24;1.38;;;0.95;;
34960;SDS011;30789;52.030;7.110;2023-05-10T13:03:52;1.35;;;1.25;;
34960;SDS011;30789;52.030;7.110;2023-05-10T13:06:19;1.75;;;1.23;;
34960;SDS011;30789;52.030;7.110;2023-05-10T13:08:45;1.38;;;1.27;;
34960;SDS011;30789;52.030;7.110;2023-05-10T13:11:13;1.05;;;0.52;;
34960;SDS011;30789;52.030;7.110;2023-05-10T13:13:41;2.58;;;1.30;;
34960;SDS011;30789;52.030;7.110;2023-05-10T13:16:08;1.40;;;0.93;;
34960;SDS011;30789;52.030;7.110;2023-05-10T13:18:34;0.82;;;0.82;;
34960;SDS011;30789;52.030;7.110;2023-05-10T13:21:01;0.38;;;0.38;;
34960;SDS011;30789;52.030;7.110;2023-05-10T13:23:28;0.20;;;0.20;;
34960;SDS011;30789;52.030;7.110;2023-05-10T13:25:55;2.28;;;0.68;;
34960;SDS011;30789;52.030;7.110;2023-05-10T13:28:23;0.25;;;0.25;;
34960;SDS011;30789;52.030;7.110;2023-05-10T13:30:51;1.35;;;0.77;;
34960;SDS011;30789;52.030;7.110;2023-05-10T13:33:17;3.08;;;1.92;;
34960;SDS011;30789;52.030;7.110;2023-05-10T13:35:44;2.00;;;1.65;;
34960;SDS011;30789;52.030;7.110;2023-05-10T13:38:10;1.25;;;1.25;;
34960;SDS011;30789;52.030;7.110;2023-05-10T13:40:37;0.73;;;0.57;;
34960;SDS011;30789;52.030;7.110;2023-05-10T13:43:03;2.22;;;2.03;;
34960;SDS011;30789;52.030;7.110;2023-05-10T13:45:31;4.07;;;1.33;;
34960;SDS011;30789;52.030;7.110;2023-05-10T13:47:58;2.40;;;2.25;;
34960;SDS011;30789;52.030;7.110;2023-05-10T13:50:24;2.28;;;1.45;;
34960;SDS011;30789;52.030;7.110;2023-05-10T13:52:51;0.45;;;0.30;;
34960;SDS011;30789;52.030;7.110;2023-05-10T13:55:17;0.25;;;0.25;;
34960;SDS011;30789;52.030;7.110;2023-05-10T13:57:43;1.15;;;1.15;;
34960;SDS011;30789;52.030;7.110;2023-05-10T14:00:10;0.32;;;0.32;;
34960;SDS011;30789;52.030;7.110;2023-05-10T14:02:39;1.15;;;0.68;;
34960;SDS011;30789;52.030;7.110;2023-05-10T14:05:05;0.47;;;0.47;;
34960;SDS011;30789;52.030;7.110;2023-05-10T14:07:32;1.17;;;0.75;;
34960;SDS011;30789;52.030;7.110;2023-05-10T14:09:59;1.20;;;1.10;;
34960;SDS011;30789;52.030;7.110;2023-05-10T14:12:26;0.63;;;0.63;;
34960;SDS011;30789;52.030;7.110;2023-05-10T14:14:52;1.20;;;1.20;;
34960;SDS011;30789;52.030;7.110;2023-05-10T14:17:19;0.40;;;0.40;;
34960;SDS011;30789;52.030;7.110;2023-05-10T14:19:46;0.52;;;0.52;;
34960;SDS011;30789;52.030;7.110;2023-05-10T14:22:13;1.73;;;1.40;;
34960;SDS011;30789;52.030;7.110;2023-05-10T14:24:39;0.88;;;0.88;;
34960;SDS011;30789;52.030;7.110;2023-05-10T14:27:06;1.00;;;0.57;;
34960;SDS011;30789;52.030;7.110;2023-05-10T14:29:32;2.28;;;1.25;;
34960;SDS011;30789;52.030;7.110;2023-05-10T14:31:59;1.25;;;0.50;;
34960;SDS011;30789;52.030;7.110;2023-05-10T14:34:25;1.02;;;0.98;;
34960;SDS011;30789;52.030;7.110;2023-05-10T14:36:53;1.58;;;1.48;;
34960;SDS011;30789;52.030;7.110;2023-05-10T14:39:20;0.50;;;0.25;;
34960;SDS011;30789;52.030;7.110;2023-05-10T14:41:46;0.30;;;0.30;;
34960;SDS011;30789;52.030;7.110;2023-05-10T14:44:13;0.75;;;0.75;;
34960;SDS011;30789;52.030;7.110;2023-05-10T14:46:40;1.45;;;0.57;;
34960;SDS011;30789;52.030;7.110;2023-05-10T14:49:06;0.90;;;0.90;;
34960;SDS011;30789;52.030;7.110;2023-05-10T14:51:33;1.45;;;0.85;;
34960;SDS011;30789;52.030;7.110;2023-05-10T14:54:03;1.15;;;1.15;;
34960;SDS011;30789;52.030;7.110;2023-05-10T14:56:29;0.82;;;0.82;;
34960;SDS011;30789;52.030;7.110;2023-05-10T14:58:56;0.00;;;0.00;;
34960;SDS011;30789;52.030;7.110;2023-05-10T15:01:22;0.40;;;0.40;;